Time;durP1;ratioP1;P1;durP2;ratioP2;P2;SDS_P1;SDS_P2;PMS_P1;PMS_P2;Temp;Humidity;BMP_temperature;BMP_pressure;BME280_temperature;BME280_humidity;BME280_pressure;Samples;Min_cycle;Max_cycle;Signal;HPM_P1;HPM_P2
2022/04/08 00:01:18;;;;;;;2.72;1.00;;;;;;;9.59;52.96;95150.75;4941385;28;20036;-81
2022/04/08 00:03:47;;;;;;;5.35;0.73;;;;;;;9.58;52.27;95158.78;4941380;29;20036;-81
2022/04/08 00:06:15;;;;;;;4.70;1.02;;;;;;;9.56;52.60;95158.19;4941128;29;20051;-82
2022/04/08 00:08:46;;;;;;;7.30;0.80;;;;;;;9.54;52.26;95162.81;4940925;29;20095;-81
2022/04/08 00:11:14;;;;;;;4.65;0.90;;;;;;;9.56;52.76;95168.63;4940939;29;20052;-81
2022/04/08 00:13:43;;;;;;;4.43;1.30;;;;;;;9.54;52.11;95165.44;4941020;29;20035;-81
2022/04/08 00:16:12;;;;;;;4.70;1.23;;;;;;;9.49;51.50;95169.44;4940856;29;20125;-81
2022/04/08 00:18:41;;;;;;;1.92;0.77;;;;;;;9.48;53.49;95162.63;4941067;29;20120;-81
2022/04/08 00:21:09;;;;;;;2.30;0.60;;;;;;;9.46;52.67;95169.84;4940991;28;20065;-81
2022/04/08 00:23:38;;;;;;;5.03;0.63;;;;;;;9.45;52.63;95168.28;4940997;29;20056;-81
2022/04/08 00:26:08;;;;;;;7.60;0.88;;;;;;;9.43;51.58;95164.28;4940862;28;20071;-81
2022/04/08 00:28:36;;;;;;;2.03;0.77;;;;;;;9.40;51.37;95168.09;4941040;28;20048;-80
2022/04/08 00:31:05;;;;;;;3.03;0.82;;;;;;;9.38;51.47;95183.13;4940918;28;20036;-81
2022/04/08 00:33:33;;;;;;;4.07;0.80;;;;;;;9.35;51.33;95173.13;4940805;29;20058;-81
2022/04/08 00:36:05;;;;;;;4.78;0.80;;;;;;;9.33;51.26;95164.72;4940782;29;20059;-81
2022/04/08 00:38:34;;;;;;;3.40;0.77;;;;;;;9.28;51.79;95183.56;4940845;28;20047;-81
2022/04/08 00:41:02;;;;;;;2.35;0.60;;;;;;;9.25;52.23;95178.78;4941049;29;20056;-81
2022/04/08 00:43:37;;;;;;;4.78;1.38;;;;;;;9.22;50.34;95181.00;4940728;29;20073;-81
2022/04/08 00:46:07;;;;;;;6.15;1.02;;;;;;;9.20;51.84;95175.22;4940525;29;20048;-81
2022/04/08 00:48:36;;;;;;;8.50;0.68;;;;;;;9.17;50.87;95191.25;4940619;29;20111;-81
2022/04/08 00:51:06;;;;;;;10.65;1.13;;;;;;;9.15;51.77;95191.44;4940448;29;20062;-82
2022/04/08 00:53:36;;;;;;;3.33;1.08;;;;;;;9.15;52.35;95198.44;4940431;28;20036;-81
2022/04/08 00:56:05;;;;;;;1.95;0.77;;;;;;;9.16;52.00;95200.84;4940423;29;20044;-81
2022/04/08 00:58:36;;;;;;;3.80;0.60;;;;;;;9.18;50.56;95187.63;4940665;29;20032;-81
2022/04/08 01:01:06;;;;;;;2.67;0.47;;;;;;;9.17;51.45;95199.03;4940671;29;20096;-80
2022/04/08 01:03:35;;;;;;;2.58;0.98;;;;;;;9.16;52.44;95211.25;4940352;29;20080;-81
2022/04/08 01:06:03;;;;;;;3.22;0.80;;;;;;;9.17;51.77;95196.44;4940458;29;20414;-80
2022/04/08 01:08:34;;;;;;;2.58;0.90;;;;;;;9.19;52.82;95210.03;4940310;29;20088;-81
2022/04/08 01:11:03;;;;;;;3.40;1.05;;;;;;;9.17;52.64;95201.66;4940167;29;20079;-80
2022/04/08 01:13:31;;;;;;;8.13;0.90;;;;;;;9.16;52.96;95205.25;4942823;29;20077;-81
2022/04/08 01:16:01;;;;;;;2.28;0.68;;;;;;;9.16;53.72;95211.25;4943654;29;20036;-81
2022/04/08 01:18:29;;;;;;;4.05;0.95;;;;;;;9.16;54.43;95218.25;4943885;29;20048;-81
2022/04/08 01:20:57;;;;;;;5.47;1.00;;;;;;;9.14;52.75;95218.47;4943888;28;20104;-81
2022/04/08 01:23:27;;;;;;;3.45;0.98;;;;;;;9.15;53.61;95209.66;4943598;29;20052;-81
2022/04/08 01:25:56;;;;;;;5.85;1.00;;;;;;;9.15;53.77;95225.25;4943259;28;20039;-81
2022/04/08 01:28:27;;;;;;;4.18;0.98;;;;;;;9.18;53.73;95216.25;4943329;29;20060;-81
2022/04/08 01:30:55;;;;;;;5.13;0.90;;;;;;;9.18;51.82;95218.84;4943735;29;20036;-81
2022/04/08 01:33:23;;;;;;;4.70;1.15;;;;;;;9.16;52.74;95232.06;4942965;28;20052;-81
2022/04/08 01:35:52;;;;;;;3.38;0.52;;;;;;;9.14;52.18;95207.25;4942730;29;20039;-81
2022/04/08 01:38:20;;;;;;;3.40;0.77;;;;;;;9.12;52.47;95209.25;4943363;29;20081;-81
2022/04/08 01:40:48;;;;;;;5.07;1.30;;;;;;;9.11;52.22;95205.88;4943498;28;20039;-81
2022/04/08 01:43:18;;;;;;;5.13;1.65;;;;;;;9.11;52.10;95208.47;4943350;28;20060;-81
2022/04/08 01:45:46;;;;;;;3.67;0.60;;;;;;;9.10;53.70;95213.91;4943282;28;20062;-81
2022/04/08 01:48:14;;;;;;;4.35;0.88;;;;;;;9.10;53.79;95199.06;4943923;28;20039;-81
2022/04/08 01:50:43;;;;;;;3.33;1.20;;;;;;;9.07;54.66;95213.31;4943763;28;20093;-81
2022/04/08 01:53:13;;;;;;;3.92;0.90;;;;;;;9.04;53.80;95211.09;4943280;28;20064;-81
2022/04/08 01:55:41;;;;;;;6.22;1.08;;;;;;;9.00;53.88;95216.91;4942808;29;20077;-81
2022/04/08 01:58:10;;;;;;;5.43;0.90;;;;;;;8.94;53.89;95217.72;4942751;29;20032;-81
2022/04/08 02:00:40;;;;;;;2.92;0.60;;;;;;;8.90;53.93;95219.97;4943249;29;20036;-81
2022/04/08 02:03:11;;;;;;;4.43;0.68;;;;;;;8.89;55.03;95215.75;4942845;29;20040;-81
2022/04/08 02:05:39;;;;;;;3.42;1.17;;;;;;;8.88;54.81;95227.16;4942734;29;20056;-81
2022/04/08 02:08:08;;;;;;;4.53;1.15;;;;;;;8.85;54.22;95225.78;4942192;29;20032;-81
2022/04/08 02:10:36;;;;;;;3.92;1.10;;;;;;;8.81;54.46;95234.97;4942671;29;20056;-81
2022/04/08 02:13:04;;;;;;;6.63;1.05;;;;;;;8.81;54.46;95239.38;4942428;29;20055;-81
2022/04/08 02:15:34;;;;;;;2.60;0.93;;;;;;;8.80;54.71;95238.56;4942659;29;20058;-82
2022/04/08 02:18:04;;;;;;;5.40;0.95;;;;;;;8.81;53.95;95236.75;4942439;29;20057;-81
2022/04/08 02:20:33;;;;;;;3.42;1.02;;;;;;;8.80;53.73;95238.56;4942565;28;20063;-81
2022/04/08 02:23:02;;;;;;;5.45;1.10;;;;;;;8.80;54.77;95237.78;4942426;28;20052;-81
2022/04/08 02:25:30;;;;;;;4.30;1.10;;;;;;;8.79;55.40;95241.38;4941582;29;20032;-81
2022/04/08 02:27:58;;;;;;;4.68;1.10;;;;;;;8.79;54.53;95252.59;4942420;29;20052;-81
2022/04/08 02:30:27;;;;;;;3.83;0.88;;;;;;;8.79;55.21;95246.56;4942310;29;20083;-81
2022/04/08 02:32:56;;;;;;;5.72;1.13;;;;;;;8.77;55.80;95240.78;4942264;29;20081;-81
2022/04/08 02:35:25;;;;;;;4.35;0.85;;;;;;;8.76;56.69;95242.56;4942477;29;20040;-81
2022/04/08 02:37:54;;;;;;;5.00;1.05;;;;;;;8.77;55.63;95244.19;4941489;29;20052;-81
2022/04/08 02:40:22;;;;;;;4.90;0.80;;;;;;;8.75;56.03;95240.19;4942013;29;20069;-81
2022/04/08 02:42:51;;;;;;;6.63;1.17;;;;;;;8.73;56.93;95237.00;4941450;29;20099;-81
2022/04/08 02:45:19;;;;;;;2.53;1.10;;;;;;;8.73;56.75;95231.81;4942215;29;20040;-81
2022/04/08 02:47:47;;;;;;;4.63;0.82;;;;;;;8.72;56.47;95236.19;4941716;29;20097;-81
2022/04/08 02:50:15;;;;;;;5.45;0.98;;;;;;;8.72;56.38;95243.19;4942327;29;20044;-81
2022/04/08 02:52:45;;;;;;;4.78;1.13;;;;;;;8.71;55.86;95245.00;4941489;29;20096;-82
2022/04/08 02:55:13;;;;;;;6.05;0.95;;;;;;;8.71;55.34;95239.00;4941673;28;20048;-82
2022/04/08 02:57:45;;;;;;;2.95;0.95;;;;;;;8.72;55.44;95240.59;4941446;29;20407;-81
2022/04/08 03:00:17;;;;;;;4.07;1.30;;;;;;;8.71;55.83;95239.78;4941687;29;20065;-81
2022/04/08 03:02:46;;;;;;;5.22;1.27;;;;;;;8.70;56.08;95237.38;4941567;29;20040;-81
2022/04/08 03:05:15;;;;;;;2.92;1.05;;;;;;;8.65;56.88;95257.00;4941487;28;20065;-81
2022/04/08 03:07:44;;;;;;;3.35;1.20;;;;;;;8.61;55.57;95250.59;4941258;29;20028;-81
2022/04/08 03:10:13;;;;;;;7.70;1.55;;;;;;;8.60;56.62;95248.22;4941695;29;20036;-81
2022/04/08 03:12:41;;;;;;;3.95;0.88;;;;;;;8.56;55.99;95258.22;4941867;29;20036;-81
2022/04/08 03:15:11;;;;;;;7.90;1.38;;;;;;;8.51;56.22;95245.03;4942184;28;20072;-81
2022/04/08 03:17:39;;;;;;;5.32;1.05;;;;;;;8.50;56.60;95247.81;4940766;29;20091;-81
2022/04/08 03:20:08;;;;;;;4.82;0.93;;;;;;;8.48;57.30;95250.63;4940499;29;20056;-82
2022/04/08 03:22:36;;;;;;;5.90;1.77;;;;;;;8.47;56.29;95253.44;4940869;29;20069;-81
2022/04/08 03:25:07;;;;;;;4.45;1.08;;;;;;;8.47;55.69;95254.22;4940813;29;20056;-81
2022/04/08 03:27:35;;;;;;;2.20;0.63;;;;;;;8.48;56.68;95260.22;4940270;29;20116;-81
2022/04/08 03:30:03;;;;;;;5.13;0.95;;;;;;;8.47;55.78;95269.81;4940765;29;20059;-81
2022/04/08 03:32:31;;;;;;;4.72;0.90;;;;;;;8.49;56.52;95273.03;4940801;29;20494;-81
2022/04/08 03:34:59;;;;;;;3.63;1.13;;;;;;;8.51;56.98;95271.03;4940184;29;20126;-81
2022/04/08 03:37:27;;;;;;;3.83;0.93;;;;;;;8.50;55.55;95279.81;4940259;29;20040;-81
2022/04/08 03:39:55;;;;;;;2.70;0.90;;;;;;;8.49;55.55;95267.81;4940510;29;20084;-81
2022/04/08 03:42:26;;;;;;;5.43;1.30;;;;;;;8.49;56.38;95270.41;4940467;29;20055;-81
2022/04/08 03:44:54;;;;;;;3.88;1.15;;;;;;;8.49;56.84;95261.84;4940248;29;20063;-81
2022/04/08 03:47:22;;;;;;;5.30;0.73;;;;;;;8.48;55.80;95266.22;4940119;29;20081;-81
2022/04/08 03:49:50;;;;;;;3.90;0.93;;;;;;;8.49;54.98;95277.44;4940462;29;20406;-81
2022/04/08 03:52:18;;;;;;;2.28;1.10;;;;;;;8.47;55.37;95274.22;4940506;29;20048;-81
2022/04/08 03:54:46;;;;;;;3.33;1.20;;;;;;;8.44;55.80;95289.22;4940863;29;20032;-81
2022/04/08 03:57:14;;;;;;;3.55;1.10;;;;;;;8.43;54.76;95286.81;4940208;29;20071;-81
2022/04/08 03:59:44;;;;;;;8.60;1.23;;;;;;;8.44;55.54;95275.44;4940188;29;20052;-81
2022/04/08 04:02:12;;;;;;;2.80;1.02;;;;;;;8.42;55.19;95293.81;4939740;29;20064;-81
2022/04/08 04:04:40;;;;;;;5.75;1.33;;;;;;;8.40;56.31;95300.19;4939871;29;20044;-81
2022/04/08 04:07:09;;;;;;;7.38;1.23;;;;;;;8.38;57.30;95302.19;4939198;29;20081;-81
2022/04/08 04:09:37;;;;;;;2.95;0.80;;;;;;;8.36;56.29;95301.56;4939635;29;20051;-81
2022/04/08 04:12:06;;;;;;;5.15;1.63;;;;;;;8.35;56.48;95297.38;4939486;29;20079;-81
2022/04/08 04:14:33;;;;;;;6.93;1.30;;;;;;;8.32;55.17;95298.56;4939382;29;20057;-81
2022/04/08 04:17:03;;;;;;;4.93;1.17;;;;;;;8.31;55.35;95301.34;4939437;29;20052;-81
2022/04/08 04:19:31;;;;;;;9.18;1.48;;;;;;;8.27;55.34;95302.78;4939726;29;20052;-81
2022/04/08 04:21:59;;;;;;;3.85;1.10;;;;;;;8.24;55.38;95296.97;4939892;29;20060;-81
2022/04/08 04:24:27;;;;;;;3.40;1.10;;;;;;;8.25;56.52;95293.38;4939762;29;20052;-81
2022/04/08 04:26:55;;;;;;;3.65;0.80;;;;;;;8.23;56.10;95289.38;4939071;29;20052;-81
2022/04/08 04:29:23;;;;;;;5.47;1.40;;;;;;;8.20;55.89;95294.97;4939412;29;20052;-82
2022/04/08 04:31:55;;;;;;;3.05;0.95;;;;;;;8.18;56.67;95302.16;4938944;29;20048;-81
2022/04/08 04:34:25;;;;;;;3.65;1.30;;;;;;;8.14;57.72;95309.53;4939276;29;20043;-81
2022/04/08 04:36:53;;;;;;;5.50;1.20;;;;;;;8.11;56.91;95312.56;4940615;29;20040;-81
2022/04/08 04:39:21;;;;;;;8.02;0.98;;;;;;;8.08;56.35;95318.13;4941195;28;20039;-81
2022/04/08 04:41:49;;;;;;;2.88;0.80;;;;;;;8.08;55.67;95315.53;4939759;29;20079;-81
2022/04/08 04:44:18;;;;;;;4.88;1.20;;;;;;;8.08;55.80;95314.72;4939265;29;20048;-82
2022/04/08 04:46:46;;;;;;;4.78;1.10;;;;;;;8.11;56.07;95322.13;4938326;29;20048;-81
2022/04/08 04:49:13;;;;;;;3.17;1.30;;;;;;;8.15;56.82;95318.13;4943341;29;20072;-81
2022/04/08 04:51:43;;;;;;;2.35;0.70;;;;;;;8.17;55.94;95332.53;4943362;29;20060;-81
2022/04/08 04:54:11;;;;;;;3.30;1.00;;;;;;;8.20;57.43;95318.34;4942618;29;20068;-82
2022/04/08 04:56:39;;;;;;;5.07;1.38;;;;;;;8.20;56.61;95311.38;4942813;29;20077;-81
2022/04/08 04:59:07;;;;;;;3.95;1.20;;;;;;;8.20;56.06;95326.94;4942863;29;20052;-81
2022/04/08 05:01:35;;;;;;;3.83;1.00;;;;;;;8.21;55.02;95332.94;4942731;29;20052;-81
2022/04/08 05:04:04;;;;;;;5.80;1.92;;;;;;;8.22;54.67;95330.16;4942873;29;20054;-81
2022/04/08 05:06:34;;;;;;;6.07;1.02;;;;;;;8.24;53.65;95341.16;4942720;29;20048;-82
2022/04/08 05:09:06;;;;;;;5.32;0.85;;;;;;;8.25;53.95;95339.34;4942428;29;20046;-81
2022/04/08 05:11:34;;;;;;;6.63;1.20;;;;;;;8.23;53.53;95334.34;4942950;29;20281;-81
2022/04/08 05:14:02;;;;;;;3.40;0.82;;;;;;;8.21;54.14;95328.53;4942855;29;20048;-81
2022/04/08 05:16:30;;;;;;;3.78;0.70;;;;;;;8.24;53.93;95335.13;4942428;29;20052;-81
2022/04/08 05:18:58;;;;;;;6.55;1.02;;;;;;;8.23;53.83;95325.75;4942964;29;20052;-81
2022/04/08 05:21:29;;;;;;;4.53;1.10;;;;;;;8.21;54.86;95340.72;4941978;29;20050;-81
2022/04/08 05:23:57;;;;;;;15.73;3.30;;;;;;;8.18;53.29;95338.53;4942675;29;20040;-81
2022/04/08 05:26:26;;;;;;;4.85;1.70;;;;;;;8.16;53.00;95346.53;4942401;29;20056;-81
2022/04/08 05:28:54;;;;;;;5.15;1.10;;;;;;;8.17;52.97;95349.91;4942206;29;20086;-81
2022/04/08 05:31:22;;;;;;;5.13;1.25;;;;;;;8.18;52.75;95352.31;4942132;29;20080;-81
2022/04/08 05:33:50;;;;;;;4.22;0.82;;;;;;;8.18;51.67;95339.31;4942458;29;20060;-81
2022/04/08 05:36:18;;;;;;;5.75;0.90;;;;;;;8.18;52.31;95346.31;4941937;29;20124;-81
2022/04/08 05:38:46;;;;;;;8.40;1.02;;;;;;;8.16;52.60;95353.50;4941682;29;20112;-81
2022/04/08 05:41:14;;;;;;;4.88;0.90;;;;;;;8.17;52.33;95355.91;4941850;29;20044;-81
2022/04/08 05:43:45;;;;;;;5.20;1.52;;;;;;;8.19;52.13;95369.50;4942178;29;20044;-81
2022/04/08 05:46:13;;;;;;;3.90;0.88;;;;;;;8.20;51.68;95360.72;4941924;29;20093;-82
2022/04/08 05:48:41;;;;;;;7.93;1.08;;;;;;;8.21;53.91;95354.50;4942107;29;20040;-81
2022/04/08 05:51:10;;;;;;;3.22;1.10;;;;;;;8.22;54.38;95355.31;4941913;29;20048;-81
2022/04/08 05:53:38;;;;;;;5.72;1.05;;;;;;;8.20;54.82;95359.91;4942307;29;20051;-81
2022/04/08 05:56:06;;;;;;;5.70;1.13;;;;;;;8.18;54.67;95370.50;4941618;29;20071;-81
2022/04/08 05:58:34;;;;;;;5.25;1.35;;;;;;;8.17;54.25;95373.28;4941537;29;20069;-81
2022/04/08 06:01:03;;;;;;;6.03;1.30;;;;;;;8.15;55.24;95376.06;4941332;29;20060;-81
2022/04/08 06:03:31;;;;;;;7.22;1.85;;;;;;;8.16;55.40;95369.91;4941541;29;20048;-81
2022/04/08 06:05:59;;;;;;;3.17;1.10;;;;;;;8.19;55.40;95377.28;4941422;29;20060;-81
2022/04/08 06:08:27;;;;;;;5.05;0.80;;;;;;;8.21;54.53;95375.28;4941942;29;20108;-81
2022/04/08 06:10:55;;;;;;;8.38;1.67;;;;;;;8.26;55.83;95385.09;4941573;29;20064;-81
2022/04/08 06:13:24;;;;;;;2.42;1.08;;;;;;;8.28;54.65;95385.69;4941386;29;20069;-81
2022/04/08 06:15:53;;;;;;;8.40;1.77;;;;;;;8.30;55.16;95388.91;4941274;29;20055;-81
2022/04/08 06:18:23;;;;;;;5.20;1.10;;;;;;;8.32;55.74;95375.72;4941489;29;20056;-81
2022/04/08 06:20:51;;;;;;;3.92;1.20;;;;;;;8.33;55.48;95385.09;4942441;29;20071;-81
2022/04/08 06:23:19;;;;;;;3.53;1.20;;;;;;;8.30;54.47;95383.69;4941604;29;20054;-81
2022/04/08 06:25:48;;;;;;;6.72;1.33;;;;;;;8.32;55.75;95381.72;4940845;29;20036;-81
2022/04/08 06:28:16;;;;;;;7.68;1.17;;;;;;;8.35;56.14;95380.50;4941671;29;20047;-81
2022/04/08 06:30:44;;;;;;;6.93;1.20;;;;;;;8.35;55.05;95380.50;4941518;29;20032;-81
2022/04/08 06:33:12;;;;;;;3.33;0.88;;;;;;;8.36;56.09;95376.94;4941805;29;20036;-81
2022/04/08 06:35:41;;;;;;;11.93;1.50;;;;;;;8.39;55.79;95376.53;4941361;29;20039;-81
2022/04/08 06:38:09;;;;;;;4.82;1.10;;;;;;;8.44;56.15;95374.19;4940825;29;20039;-82
2022/04/08 06:40:38;;;;;;;4.43;1.23;;;;;;;8.49;56.24;95376.97;4941339;29;20074;-82
2022/04/08 06:43:07;;;;;;;5.35;1.42;;;;;;;8.51;57.53;95369.78;4941540;29;20032;-81
2022/04/08 06:45:36;;;;;;;4.88;0.98;;;;;;;8.55;55.28;95362.38;4941193;29;20077;-81
2022/04/08 06:48:05;;;;;;;3.78;0.80;;;;;;;8.57;57.27;95361.19;4941338;29;20057;-81
2022/04/08 06:50:33;;;;;;;6.25;1.50;;;;;;;8.62;56.24;95358.00;4941427;29;20135;-81
2022/04/08 06:53:04;;;;;;;5.95;1.50;;;;;;;8.65;56.66;95354.97;4941543;29;20048;-81
2022/04/08 06:55:32;;;;;;;3.03;1.00;;;;;;;8.71;57.56;95358.59;4941560;29;20076;-81
2022/04/08 06:58:02;;;;;;;3.40;1.10;;;;;;;8.72;56.47;95360.97;4940760;29;20089;-81
2022/04/08 07:00:32;;;;;;;6.53;2.15;;;;;;;8.71;56.21;95358.59;4941926;29;20056;-82
2022/04/08 07:03:00;;;;;;;4.55;1.08;;;;;;;8.74;55.82;95347.78;4941561;29;20059;-81
2022/04/08 07:05:29;;;;;;;6.47;2.53;;;;;;;8.78;56.04;95348.97;4941153;29;20040;-82
2022/04/08 07:07:58;;;;;;;5.40;1.25;;;;;;;8.81;55.54;95353.78;4941050;29;20111;-81
2022/04/08 07:10:28;;;;;;;3.22;1.10;;;;;;;8.83;57.94;95359.56;4940653;29;20054;-81
2022/04/08 07:12:58;;;;;;;5.30;1.17;;;;;;;8.87;56.53;95352.97;4941306;29;20052;-81
2022/04/08 07:15:26;;;;;;;6.63;1.10;;;;;;;8.88;55.72;95354.59;4941397;29;20064;-81
2022/04/08 07:17:54;;;;;;;4.38;1.30;;;;;;;8.89;56.13;95343.16;4941208;28;20108;-81
2022/04/08 07:20:23;;;;;;;4.45;1.23;;;;;;;8.92;56.26;95336.75;4940959;29;20060;-81
2022/04/08 07:22:52;;;;;;;6.07;1.33;;;;;;;8.92;55.95;95342.78;4941389;29;20108;-81
2022/04/08 07:25:20;;;;;;;5.47;1.30;;;;;;;8.90;56.02;95334.38;4941849;29;20061;-81
2022/04/08 07:27:51;;;;;;;2.45;1.17;;;;;;;8.92;54.91;95339.38;4942041;28;20099;-80
2022/04/08 07:30:22;;;;;;;6.72;1.38;;;;;;;8.92;56.47;95324.59;4941449;29;20052;-81
2022/04/08 07:32:52;;;;;;;4.90;1.08;;;;;;;8.94;56.36;95330.34;4940964;29;20047;-81
2022/04/08 07:35:21;;;;;;;2.65;1.13;;;;;;;8.94;56.47;95322.56;4941298;29;20061;-81
2022/04/08 07:37:49;;;;;;;4.72;1.10;;;;;;;8.94;56.27;95322.56;4940711;29;20032;-81
2022/04/08 07:40:17;;;;;;;4.93;1.00;;;;;;;8.93;56.69;95320.97;4940845;29;20076;-81
2022/04/08 07:42:45;;;;;;;2.55;1.10;;;;;;;8.97;57.07;95326.56;4941345;29;20050;-81
2022/04/08 07:45:15;;;;;;;6.10;1.73;;;;;;;8.98;57.32;95313.34;4940660;29;20040;-81
2022/04/08 07:47:43;;;;;;;7.13;1.05;;;;;;;9.03;57.73;95317.94;4940625;29;20040;-81
2022/04/08 07:50:13;;;;;;;2.65;1.00;;;;;;;9.05;59.12;95318.53;4941124;29;20121;-81
2022/04/08 07:52:43;;;;;;;3.90;1.20;;;;;;;9.06;58.88;95315.72;4940955;29;20089;-81
2022/04/08 07:55:12;;;;;;;7.50;1.40;;;;;;;9.07;59.81;95312.16;4940916;29;20032;-81
2022/04/08 07:57:44;;;;;;;3.20;0.90;;;;;;;9.11;60.61;95312.53;4940643;29;20040;-81
2022/04/08 08:00:17;;;;;;;2.60;0.90;;;;;;;9.13;61.15;95309.72;4940804;28;20064;-81
2022/04/08 08:02:45;;;;;;;4.87;1.00;;;;;;;9.15;61.61;95312.91;4940811;29;20040;-81
2022/04/08 08:05:13;;;;;;;4.57;1.08;;;;;;;9.14;60.55;95319.13;4940731;29;20045;-81
2022/04/08 08:07:46;;;;;;;2.97;1.00;;;;;;;9.12;62.10;95321.13;4940319;29;20048;-81
2022/04/08 08:10:16;;;;;;;2.45;0.95;;;;;;;9.13;60.83;95317.53;4940351;29;20043;-81
2022/04/08 08:12:47;;;;;;;3.25;0.88;;;;;;;9.13;61.14;95320.13;4940460;29;20095;-81
2022/04/08 08:15:18;;;;;;;1.30;0.68;;;;;;;9.08;61.09;95312.94;4940267;29;20040;-81
2022/04/08 08:17:47;;;;;;;2.10;0.60;;;;;;;9.04;61.43;95315.13;4939887;28;20062;-81
2022/04/08 08:20:17;;;;;;;3.65;1.33;;;;;;;9.05;61.82;95306.34;4940539;29;20062;-81
2022/04/08 08:22:45;;;;;;;2.38;0.63;;;;;;;9.04;60.67;95299.53;4940361;29;20064;-81
2022/04/08 08:25:14;;;;;;;0.77;0.60;;;;;;;9.07;62.18;95301.75;4940143;29;20063;-81
2022/04/08 08:27:44;;;;;;;2.22;0.90;;;;;;;9.10;62.69;95295.31;4940120;29;20081;-81
2022/04/08 08:30:17;;;;;;;4.00;1.23;;;;;;;9.12;62.91;95287.28;4940642;29;20063;-81
2022/04/08 08:32:47;;;;;;;5.13;1.88;;;;;;;9.12;62.94;95289.91;4940441;29;20052;-81
2022/04/08 08:35:18;;;;;;;2.97;0.82;;;;;;;9.13;63.24;95273.31;4939905;28;20044;-81
2022/04/08 08:37:47;;;;;;;1.73;0.50;;;;;;;9.14;63.26;95274.88;4939809;29;20052;-81
2022/04/08 08:40:17;;;;;;;1.70;0.70;;;;;;;9.14;62.67;95275.72;4940120;28;20043;-81
2022/04/08 08:42:46;;;;;;;2.08;0.75;;;;;;;9.14;62.66;95265.31;4940727;29;20064;-81
2022/04/08 08:45:15;;;;;;;2.90;1.13;;;;;;;9.17;63.29;95264.09;4940379;29;20060;-81
2022/04/08 08:47:48;;;;;;;1.02;0.60;;;;;;;9.21;64.02;95265.28;4940062;29;20036;-81
2022/04/08 08:50:17;;;;;;;2.25;0.55;;;;;;;9.24;63.01;95251.84;4940337;29;20044;-81
2022/04/08 08:52:50;;;;;;;2.08;0.50;;;;;;;9.31;63.15;95254.41;4940783;29;20040;-81
2022/04/08 08:55:21;;;;;;;3.00;0.60;;;;;;;9.34;63.40;95247.00;4940450;29;20059;-81
2022/04/08 08:57:51;;;;;;;1.65;0.57;;;;;;;9.35;63.65;95246.00;4940178;29;20032;-81
2022/04/08 09:00:23;;;;;;;2.40;0.93;;;;;;;9.36;63.98;95247.59;4940536;29;20099;-81
2022/04/08 09:02:53;;;;;;;2.38;0.70;;;;;;;9.39;63.86;95247.19;4940394;29;20095;-81
2022/04/08 09:05:23;;;;;;;2.05;0.52;;;;;;;9.41;64.22;95244.38;4940053;29;20048;-81
2022/04/08 09:07:55;;;;;;;3.30;0.65;;;;;;;9.41;64.03;95245.16;4940275;28;20064;-81
2022/04/08 09:10:29;;;;;;;2.10;0.70;;;;;;;9.44;63.93;95249.94;4940637;29;20036;-81
2022/04/08 09:13:00;;;;;;;0.68;0.40;;;;;;;9.46;62.79;95240.13;4940390;29;20032;-81
2022/04/08 09:15:29;;;;;;;0.95;0.50;;;;;;;9.49;63.66;95231.91;4940284;29;20096;-80
2022/04/08 09:18:08;;;;;;;1.88;0.55;;;;;;;9.54;63.26;95233.09;4940082;29;20061;-81
2022/04/08 09:20:41;;;;;;;4.80;0.75;;;;;;;9.56;63.39;95225.88;4940310;28;20050;-81
2022/04/08 09:23:10;;;;;;;2.13;0.50;;;;;;;9.53;62.66;95223.69;4940242;29;20032;-82
2022/04/08 09:25:39;;;;;;;2.67;0.65;;;;;;;9.51;62.97;95216.09;4940374;29;20220;-81
2022/04/08 09:28:08;;;;;;;0.98;0.50;;;;;;;9.53;62.93;95210.66;4940092;29;20120;-82
2022/04/08 09:30:37;;;;;;;1.13;0.65;;;;;;;9.58;62.89;95213.47;4940137;28;20044;-81
2022/04/08 09:33:16;;;;;;;1.27;0.50;;;;;;;9.62;63.14;95214.63;4940538;29;20073;-81
2022/04/08 09:35:45;;;;;;;2.58;0.75;;;;;;;9.65;62.88;95207.19;4943531;28;20084;-81
2022/04/08 09:38:18;;;;;;;0.82;0.47;;;;;;;9.67;63.20;95201.78;4943555;29;20055;-81
2022/04/08 09:40:48;;;;;;;1.85;0.45;;;;;;;9.66;62.31;95198.38;4943982;29;20096;-81
2022/04/08 09:43:17;;;;;;;1.52;0.60;;;;;;;9.66;63.00;95189.75;4943611;29;20047;-81
2022/04/08 09:45:47;;;;;;;1.08;0.50;;;;;;;9.68;63.09;95183.31;4943034;29;20052;-81
2022/04/08 09:48:16;;;;;;;1.00;0.60;;;;;;;9.68;63.71;95172.91;4943421;29;20055;-81
2022/04/08 09:50:51;;;;;;;0.82;0.80;;;;;;;9.67;63.49;95171.34;4943567;29;20081;-81
2022/04/08 09:53:22;;;;;;;2.17;0.80;;;;;;;9.66;63.57;95168.94;4943332;29;20051;-81
2022/04/08 09:55:52;;;;;;;1.48;0.38;;;;;;;9.63;63.04;95154.53;4943268;29;20040;-81
2022/04/08 09:58:23;;;;;;;2.08;0.73;;;;;;;9.59;64.03;95148.16;4943234;28;20056;-81
2022/04/08 10:00:51;;;;;;;0.68;0.68;;;;;;;9.57;64.07;95144.97;4943694;28;20059;-81
2022/04/08 10:03:21;;;;;;;1.88;0.35;;;;;;;9.54;62.87;95131.59;4943639;28;20040;-81
2022/04/08 10:05:50;;;;;;;0.35;0.10;;;;;;;9.49;62.97;95127.00;4942935;29;20043;-81
2022/04/08 10:08:19;;;;;;;0.20;0.20;;;;;;;9.47;63.13;95124.63;4943078;29;20116;-81
2022/04/08 10:10:54;;;;;;;2.22;0.50;;;;;;;9.49;64.86;95120.00;4943309;29;20032;-81
2022/04/08 10:13:33;;;;;;;0.73;0.40;;;;;;;9.50;64.43;95105.16;4943298;29;20048;-81
2022/04/08 10:16:09;;;;;;;0.68;0.57;;;;;;;9.52;64.25;95099.75;4943448;29;20047;-82
2022/04/08 10:18:41;;;;;;;0.50;0.28;;;;;;;9.51;64.70;95083.34;4943379;29;20072;-82
2022/04/08 10:21:11;;;;;;;1.35;0.43;;;;;;;9.52;64.03;95086.75;4942945;29;20078;-81
2022/04/08 10:23:41;;;;;;;1.38;0.45;;;;;;;9.51;65.06;95082.53;4942960;29;20051;-81
2022/04/08 10:26:18;;;;;;;0.93;0.85;;;;;;;9.49;64.70;95075.75;4942996;29;20036;-81
2022/04/08 10:28:47;;;;;;;2.40;0.70;;;;;;;9.48;65.75;95068.94;4942730;28;20044;-81
2022/04/08 10:31:17;;;;;;;1.88;0.30;;;;;;;9.46;64.21;95064.94;4942961;29;20048;-81
2022/04/08 10:33:49;;;;;;;0.75;0.30;;;;;;;9.45;65.26;95061.56;4942898;29;20044;-81
2022/04/08 10:36:18;;;;;;;2.75;0.50;;;;;;;9.42;63.68;95043.78;4942784;28;20064;-81
2022/04/08 10:38:46;;;;;;;2.90;1.00;;;;;;;9.41;65.11;95036.97;4942216;28;20040;-81
2022/04/08 10:41:16;;;;;;;1.38;0.88;;;;;;;9.41;65.59;95036.97;4942283;29;20058;-81
2022/04/08 10:43:46;;;;;;;4.47;1.85;;;;;;;9.42;64.30;95029.94;4942753;29;20055;-81
2022/04/08 10:46:27;;;;;;;2.97;1.33;;;;;;;9.42;65.21;95017.75;4940886;28;20040;-81
2022/04/08 10:48:58;;;;;;;1.33;0.80;;;;;;;9.42;64.98;95007.34;4942287;29;20040;-81
2022/04/08 10:51:30;;;;;;;0.63;0.30;;;;;;;9.43;64.81;95003.72;4942316;29;20052;-81
2022/04/08 10:54:04;;;;;;;1.13;0.20;;;;;;;9.40;63.87;95001.56;4942600;29;20036;-81
2022/04/08 10:56:34;;;;;;;2.72;0.80;;;;;;;9.37;64.30;94985.56;4942042;28;20157;-81
2022/04/08 10:59:04;;;;;;;2.00;0.77;;;;;;;9.33;63.48;94979.97;4942030;29;20060;-81
2022/04/08 11:01:36;;;;;;;0.93;0.63;;;;;;;9.27;63.58;94966.03;4942406;29;20052;-82
2022/04/08 11:04:08;;;;;;;2.17;0.47;;;;;;;9.18;63.75;94969.91;4942210;28;20036;-81
2022/04/08 11:06:38;;;;;;;1.10;0.30;;;;;;;9.06;63.42;94964.59;4941851;29;20032;-81
2022/04/08 11:09:07;;;;;;;1.45;0.20;;;;;;;9.00;64.25;94962.03;4941829;29;20044;-81
2022/04/08 11:11:37;;;;;;;3.15;1.00;;;;;;;8.95;65.26;94960.06;4941840;29;20071;-81
2022/04/08 11:14:07;;;;;;;2.70;1.15;;;;;;;8.94;66.72;94953.25;4941654;29;20085;-81
2022/04/08 11:16:37;;;;;;;1.63;0.70;;;;;;;8.95;66.54;94954.88;4941822;28;20055;-81
2022/04/08 11:19:06;;;;;;;0.93;0.43;;;;;;;8.96;65.26;94946.03;4941787;28;20074;-81
2022/04/08 11:21:39;;;;;;;3.10;0.50;;;;;;;8.94;64.69;94942.84;4941903;29;20051;-81
2022/04/08 11:24:09;;;;;;;0.45;0.28;;;;;;;8.92;64.80;94936.28;4941695;29;20051;-81
2022/04/08 11:26:42;;;;;;;0.88;0.47;;;;;;;8.87;65.01;94921.31;4941275;29;20044;-81
2022/04/08 11:29:12;;;;;;;3.47;1.65;;;;;;;8.88;66.47;94920.31;4941258;29;20052;-82
2022/04/08 11:31:40;;;;;;;1.63;0.50;;;;;;;8.87;65.13;94905.72;4941422;29;20086;-81
2022/04/08 11:34:09;;;;;;;1.65;0.55;;;;;;;8.86;64.82;94906.75;4941382;29;20032;-81
2022/04/08 11:36:39;;;;;;;1.45;0.77;;;;;;;8.85;65.56;94902.53;4941166;29;20048;-82
2022/04/08 11:39:08;;;;;;;1.30;0.50;;;;;;;8.84;65.05;94898.34;4941271;29;20054;-81
2022/04/08 11:41:37;;;;;;;3.15;1.48;;;;;;;8.86;67.01;94896.34;4941489;29;20067;-81
2022/04/08 11:44:07;;;;;;;1.00;0.65;;;;;;;8.87;65.66;94890.13;4941490;29;20055;-82
2022/04/08 11:46:36;;;;;;;2.58;1.20;;;;;;;8.89;67.76;94893.31;4941067;29;20051;-81
2022/04/08 11:49:05;;;;;;;3.88;1.35;;;;;;;8.93;67.33;94872.88;4941212;29;20059;-81
2022/04/08 11:51:33;;;;;;;0.73;0.73;;;;;;;8.96;66.73;94875.84;4941244;29;20052;-81